Time;durP1;ratioP1;P1;durP2;ratioP2;P2;SDS_P1;SDS_P2;PMS_P1;PMS_P2;Temp;Humidity;BMP_temperature;BMP_pressure;BME280_temperature;BME280_humidity;BME280_pressure;Samples;Min_cycle;Max_cycle;Signal;HPM_P1;HPM_P2
2022/08/06 00:01:56;;;;;;;1.95;1.67;;;;;;;;;;5039392;28;20198;-69
2022/08/06 00:04:23;;;;;;;2.35;2.20;;;;;;;;;;5039306;28;20259;-69
2022/08/06 00:06:49;;;;;;;2.63;1.95;;;;;;;;;;5039166;28;20552;-69
2022/08/06 00:09:16;;;;;;;1.80;1.70;;;;;;;;;;5039481;28;20209;-69
2022/08/06 00:11:42;;;;;;;1.52;1.50;;;;;;;;;;5039630;28;20234;-69
2022/08/06 00:14:10;;;;;;;1.58;1.50;;;;;;;;;;5039125;28;20204;-69
2022/08/06 00:16:36;;;;;;;2.70;1.20;;;;;;;;;;5038840;28;20214;-69
2022/08/06 00:19:03;;;;;;;1.80;1.42;;;;;;;;;;5039073;28;20198;-69
2022/08/06 00:21:29;;;;;;;1.25;1.20;;;;;;;;;;5039106;28;20205;-69
2022/08/06 00:23:56;;;;;;;1.52;1.27;;;;;;;;;;5039196;28;20205;-69
2022/08/06 00:26:24;;;;;;;1.27;1.27;;;;;;;;;;5038883;28;20238;-69
2022/08/06 00:28:50;;;;;;;1.77;1.20;;;;;;;;;;5039048;28;20259;-69
2022/08/06 00:31:18;;;;;;;2.92;1.23;;;;;;;;;;5038987;28;20205;-69
2022/08/06 00:33:44;;;;;;;2.45;1.25;;;;;;;;;;5038952;28;20213;-69
2022/08/06 00:36:10;;;;;;;1.45;1.38;;;;;;;;;;5038809;28;20533;-69
2022/08/06 00:38:36;;;;;;;1.25;1.15;;;;;;;;;;5039428;28;20355;-69
2022/08/06 00:41:03;;;;;;;1.27;1.20;;;;;;;;;;5038911;28;20219;-69
2022/08/06 00:43:29;;;;;;;3.63;1.60;;;;;;;;;;5038854;28;20427;-69
2022/08/06 00:45:55;;;;;;;3.15;1.35;;;;;;;;;;5039100;28;20204;-69
2022/08/06 00:48:23;;;;;;;1.75;1.05;;;;;;;;;;5038551;28;20202;-68
2022/08/06 00:50:49;;;;;;;1.17;1.17;;;;;;;;;;5038917;28;20198;-69
2022/08/06 00:53:15;;;;;;;1.42;1.30;;;;;;;;;;5038812;28;20213;-69
2022/08/06 00:55:42;;;;;;;3.20;1.30;;;;;;;;;;5038920;28;20197;-69
2022/08/06 00:58:08;;;;;;;1.52;1.23;;;;;;;;;;5041803;28;20197;-69
2022/08/06 01:00:34;;;;;;;2.78;1.60;;;;;;;;;;5042388;28;20201;-69
2022/08/06 01:03:01;;;;;;;1.77;1.60;;;;;;;;;;5041351;28;20466;-69
2022/08/06 01:05:28;;;;;;;1.70;1.60;;;;;;;;;;5041795;28;20470;-69
2022/08/06 01:07:54;;;;;;;1.48;1.38;;;;;;;;;;5042042;28;20193;-69
2022/08/06 01:10:21;;;;;;;1.63;1.52;;;;;;;;;;5042184;28;20220;-69
2022/08/06 01:12:48;;;;;;;2.85;1.33;;;;;;;;;;5042026;28;20227;-69
2022/08/06 01:15:14;;;;;;;2.08;1.33;;;;;;;;;;5041948;28;20243;-69
2022/08/06 01:17:43;;;;;;;1.10;1.10;;;;;;;;;;5041527;28;20438;-69
2022/08/06 01:20:16;;;;;;;1.42;1.33;;;;;;;;;;5041780;28;20317;-69
2022/08/06 01:22:59;;;;;;;1.30;1.20;;;;;;;;;;5041977;28;20531;-69
2022/08/06 01:25:36;;;;;;;1.88;1.17;;;;;;;;;;5042142;28;20201;-69
2022/08/06 01:28:06;;;;;;;4.40;1.40;;;;;;;;;;5041548;28;20215;-69
2022/08/06 01:30:34;;;;;;;2.08;1.00;;;;;;;;;;5041508;28;20189;-69
2022/08/06 01:33:02;;;;;;;2.92;1.20;;;;;;;;;;5041923;28;20202;-69
2022/08/06 01:35:31;;;;;;;3.35;1.17;;;;;;;;;;5041749;28;20201;-69
2022/08/06 01:37:59;;;;;;;1.40;0.90;;;;;;;;;;5041264;28;20708;-69
2022/08/06 01:40:28;;;;;;;1.05;1.00;;;;;;;;;;5041498;28;20258;-69
2022/08/06 01:42:56;;;;;;;1.00;1.00;;;;;;;;;;5041358;28;20198;-69
2022/08/06 01:45:26;;;;;;;0.93;0.90;;;;;;;;;;5041610;28;20242;-69
2022/08/06 01:47:53;;;;;;;1.10;1.00;;;;;;;;;;5041190;28;20505;-69
2022/08/06 01:50:20;;;;;;;2.65;1.23;;;;;;;;;;5041372;28;20527;-69
2022/08/06 01:52:49;;;;;;;3.22;1.35;;;;;;;;;;5041238;28;20446;-69
2022/08/06 01:55:16;;;;;;;1.20;1.08;;;;;;;;;;5041382;28;20205;-69
2022/08/06 01:57:45;;;;;;;0.98;0.93;;;;;;;;;;5040857;28;20233;-69
2022/08/06 02:00:12;;;;;;;1.40;0.95;;;;;;;;;;5040743;28;20198;-69
2022/08/06 02:02:41;;;;;;;1.58;1.20;;;;;;;;;;5041158;28;20198;-68
2022/08/06 02:05:09;;;;;;;1.80;1.00;;;;;;;;;;5041051;28;20541;-68
2022/08/06 02:07:37;;;;;;;0.80;0.80;;;;;;;;;;5040409;28;20206;-68
2022/08/06 02:10:05;;;;;;;1.13;1.02;;;;;;;;;;5040872;28;20259;-68
2022/08/06 02:12:32;;;;;;;2.28;0.80;;;;;;;;;;5041134;28;20235;-68
2022/08/06 02:15:00;;;;;;;1.10;0.90;;;;;;;;;;5041141;28;20502;-68
2022/08/06 02:17:28;;;;;;;0.70;0.60;;;;;;;;;;5040728;28;20556;-68
2022/08/06 02:19:59;;;;;;;1.05;0.95;;;;;;;;;;5040876;28;20243;-69
2022/08/06 02:22:26;;;;;;;1.20;0.88;;;;;;;;;;5040855;28;20205;-69
2022/08/06 02:24:52;;;;;;;3.63;0.90;;;;;;;;;;5041195;28;20198;-69
2022/08/06 02:27:19;;;;;;;1.02;0.73;;;;;;;;;;5040743;28;20235;-69
2022/08/06 02:29:46;;;;;;;0.70;0.70;;;;;;;;;;5040820;28;20198;-69
2022/08/06 02:32:14;;;;;;;0.90;0.90;;;;;;;;;;5040722;28;20198;-69
2022/08/06 02:34:40;;;;;;;3.92;0.95;;;;;;;;;;5040732;28;20198;-69
2022/08/06 02:37:19;;;;;;;1.10;1.00;;;;;;;;;;5040898;28;20222;-69
2022/08/06 02:39:49;;;;;;;1.38;0.90;;;;;;;;;;5040816;28;20519;-69
2022/08/06 02:42:18;;;;;;;2.78;1.00;;;;;;;;;;5040702;28;20222;-69
2022/08/06 02:44:47;;;;;;;4.72;1.20;;;;;;;;;;5040525;28;20210;-69
2022/08/06 02:47:14;;;;;;;0.93;0.93;;;;;;;;;;5040686;28;20264;-69
2022/08/06 02:49:42;;;;;;;3.20;0.82;;;;;;;;;;5040341;28;20202;-69
2022/08/06 02:52:14;;;;;;;0.60;0.60;;;;;;;;;;5040630;28;20250;-69
2022/08/06 02:54:42;;;;;;;2.45;1.00;;;;;;;;;;5040279;28;20325;-69
2022/08/06 02:57:11;;;;;;;1.48;0.98;;;;;;;;;;5040094;28;20465;-69
2022/08/06 02:59:43;;;;;;;2.10;1.02;;;;;;;;;;5040364;28;20197;-69
2022/08/06 03:02:11;;;;;;;2.30;0.90;;;;;;;;;;5040260;28;20243;-69
2022/08/06 03:04:38;;;;;;;1.10;1.00;;;;;;;;;;5040372;28;20475;-69
2022/08/06 03:07:09;;;;;;;0.90;0.90;;;;;;;;;;5040133;28;20291;-69
2022/08/06 03:09:38;;;;;;;0.80;0.80;;;;;;;;;;5040131;28;20198;-69
2022/08/06 03:12:06;;;;;;;2.30;0.93;;;;;;;;;;5040089;28;20202;-69
2022/08/06 03:14:33;;;;;;;1.15;1.10;;;;;;;;;;5040070;28;20629;-69
2022/08/06 03:16:59;;;;;;;2.38;1.00;;;;;;;;;;5039745;28;20560;-69
2022/08/06 03:19:26;;;;;;;3.00;0.80;;;;;;;;;;5038955;28;20201;-69
2022/08/06 03:21:53;;;;;;;1.90;1.10;;;;;;;;;;5040003;28;20198;-69
2022/08/06 03:24:21;;;;;;;1.33;0.95;;;;;;;;;;5040065;28;20418;-69
2022/08/06 03:26:50;;;;;;;2.75;0.98;;;;;;;;;;5039657;28;20194;-69
2022/08/06 03:29:16;;;;;;;0.80;0.80;;;;;;;;;;5039912;28;20227;-69
2022/08/06 03:31:44;;;;;;;2.55;0.82;;;;;;;;;;5039952;28;20205;-69
2022/08/06 03:34:10;;;;;;;1.13;0.88;;;;;;;;;;5039983;28;20217;-68
2022/08/06 03:36:37;;;;;;;0.70;0.70;;;;;;;;;;5039573;28;20209;-68
2022/08/06 03:39:05;;;;;;;2.20;0.80;;;;;;;;;;5039776;28;20250;-68
2022/08/06 03:41:33;;;;;;;1.52;0.65;;;;;;;;;;5039581;28;20233;-68
2022/08/06 03:44:01;;;;;;;1.23;1.10;;;;;;;;;;5039892;28;20202;-68
2022/08/06 03:46:29;;;;;;;4.00;1.00;;;;;;;;;;5039619;28;20202;-69
2022/08/06 03:48:56;;;;;;;1.48;0.60;;;;;;;;;;5039725;28;20206;-69
2022/08/06 03:51:26;;;;;;;0.95;0.80;;;;;;;;;;5039573;28;20235;-69
2022/08/06 03:53:53;;;;;;;0.90;0.90;;;;;;;;;;5039514;28;20513;-69
2022/08/06 03:56:21;;;;;;;1.15;0.80;;;;;;;;;;5039242;28;20459;-69
2022/08/06 03:58:48;;;;;;;0.93;0.90;;;;;;;;;;5039510;28;20221;-69
2022/08/06 04:01:17;;;;;;;1.20;0.75;;;;;;;;;;5039385;28;20201;-69
2022/08/06 04:03:44;;;;;;;0.82;0.82;;;;;;;;;;5039467;28;20210;-69
2022/08/06 04:06:12;;;;;;;1.75;1.05;;;;;;;;;;5039522;28;20263;-68
2022/08/06 04:08:39;;;;;;;2.05;0.80;;;;;;;;;;5039195;28;20363;-68
2022/08/06 04:11:06;;;;;;;1.40;0.90;;;;;;;;;;5039498;28;20202;-68
2022/08/06 04:13:33;;;;;;;1.75;0.98;;;;;;;;;;5039136;28;20198;-68
2022/08/06 04:15:59;;;;;;;1.17;0.88;;;;;;;;;;5039155;28;20204;-68
2022/08/06 04:18:28;;;;;;;1.67;0.90;;;;;;;;;;5039132;28;20214;-68
2022/08/06 04:20:56;;;;;;;1.95;0.80;;;;;;;;;;5039144;28;20198;-68
2022/08/06 04:23:22;;;;;;;1.00;1.00;;;;;;;;;;5038997;28;20250;-68
2022/08/06 04:25:50;;;;;;;0.80;0.80;;;;;;;;;;5039371;28;20206;-68
2022/08/06 04:28:17;;;;;;;1.88;0.75;;;;;;;;;;5039177;28;20239;-68
2022/08/06 04:30:44;;;;;;;1.80;1.25;;;;;;;;;;5040904;28;20423;-68
2022/08/06 04:33:12;;;;;;;1.25;1.00;;;;;;;;;;5042591;28;20197;-68
2022/08/06 04:35:40;;;;;;;4.03;0.90;;;;;;;;;;5042558;28;20243;-68
2022/08/06 04:38:07;;;;;;;1.80;0.95;;;;;;;;;;5042120;28;20221;-68
2022/08/06 04:40:33;;;;;;;3.25;1.00;;;;;;;;;;5042593;28;20202;-68
2022/08/06 04:43:00;;;;;;;5.05;0.90;;;;;;;;;;5042456;28;20505;-68
2022/08/06 04:45:27;;;;;;;1.75;0.90;;;;;;;;;;5042923;28;20534;-68
2022/08/06 04:47:53;;;;;;;2.30;1.25;;;;;;;;;;5042093;28;20238;-68
2022/08/06 04:50:20;;;;;;;1.17;0.90;;;;;;;;;;5042213;28;20201;-68
2022/08/06 04:52:47;;;;;;;2.53;0.85;;;;;;;;;;5042455;28;20242;-68
2022/08/06 04:55:14;;;;;;;3.65;1.27;;;;;;;;;;5042543;28;20209;-68
2022/08/06 04:57:40;;;;;;;1.77;1.00;;;;;;;;;;5041968;28;20217;-68
2022/08/06 05:00:07;;;;;;;1.02;0.80;;;;;;;;;;5042220;28;20235;-68
2022/08/06 05:02:33;;;;;;;1.23;0.70;;;;;;;;;;5042246;28;20527;-68
2022/08/06 05:05:00;;;;;;;1.55;0.90;;;;;;;;;;5042011;28;20255;-68
2022/08/06 05:07:28;;;;;;;1.27;0.93;;;;;;;;;;5041971;28;20239;-68
2022/08/06 05:09:57;;;;;;;1.05;0.80;;;;;;;;;;5042068;28;20502;-68
2022/08/06 05:12:25;;;;;;;1.55;1.00;;;;;;;;;;5042188;28;20205;-68
2022/08/06 05:14:53;;;;;;;3.83;1.10;;;;;;;;;;5041942;28;20237;-68
2022/08/06 05:17:21;;;;;;;1.25;1.00;;;;;;;;;;5041594;28;20197;-68
2022/08/06 05:19:56;;;;;;;4.05;1.02;;;;;;;;;;5042137;28;20258;-68
2022/08/06 05:22:23;;;;;;;4.25;3.85;;;;;;;;;;5041910;28;20199;-68
2022/08/06 05:24:49;;;;;;;3.03;1.02;;;;;;;;;;5041928;28;20243;-68
2022/08/06 05:27:17;;;;;;;3.63;2.53;;;;;;;;;;5041394;28;20224;-68
2022/08/06 05:29:43;;;;;;;1.77;1.48;;;;;;;;;;5041670;28;20251;-68
2022/08/06 05:32:10;;;;;;;2.35;1.20;;;;;;;;;;5041527;28;20413;-68
2022/08/06 05:34:36;;;;;;;1.10;1.10;;;;;;;;;;5041864;28;20235;-68
2022/08/06 05:37:02;;;;;;;1.40;1.20;;;;;;;;;;5041526;28;20198;-68
2022/08/06 05:39:29;;;;;;;3.22;1.30;;;;;;;;;;5034019;27;20226;-67
2022/08/06 05:41:55;;;;;;;4.88;1.88;;;;;;;;;;5034081;28;20246;-67
2022/08/06 05:44:24;;;;;;;1.25;1.15;;;;;;;;;;5035486;28;20206;-68
2022/08/06 05:46:51;;;;;;;1.60;1.20;;;;;;;;;;5035408;28;20216;-67
2022/08/06 05:49:20;;;;;;;1.92;1.20;;;;;;;;;;5124926;27;20378;-68
2022/08/06 05:51:50;;;;;;;1.95;1.20;;;;;;;;;;5145751;27;20240;-67
2022/08/06 05:54:19;;;;;;;6.30;3.13;;;;;;;;;;5145743;27;20386;-67
2022/08/06 05:56:47;;;;;;;5.03;1.92;;;;;;;;;;5145523;27;20205;-68
2022/08/06 05:59:18;;;;;;;4.78;4.05;;;;;;;;;;5145477;27;20387;-68
2022/08/06 06:01:46;;;;;;;3.10;1.38;;;;;;;;;;5145738;27;20194;-68
2022/08/06 06:04:12;;;;;;;1.20;1.20;;;;;;;;;;5145612;27;20199;-68
2022/08/06 06:06:39;;;;;;;0.90;0.85;;;;;;;;;;5145461;27;20585;-68
2022/08/06 06:09:06;;;;;;;1.35;1.10;;;;;;;;;;5145459;27;20190;-68
2022/08/06 06:11:33;;;;;;;2.28;1.00;;;;;;;;;;5145225;27;20417;-68
2022/08/06 06:13:59;;;;;;;1.63;1.10;;;;;;;;;;5145503;27;20203;-68
2022/08/06 06:16:28;;;;;;;1.10;1.00;;;;;;;;;;5145359;27;20198;-68
2022/08/06 06:18:59;;;;;;;1.98;0.80;;;;;;;;;;5145299;27;20214;-68
2022/08/06 06:21:31;;;;;;;2.50;1.27;;;;;;;;;;5145325;27;20198;-68
2022/08/06 06:24:01;;;;;;;3.80;1.55;;;;;;;;;;5145695;27;20224;-68
2022/08/06 06:26:29;;;;;;;1.35;1.20;;;;;;;;;;5146400;27;20245;-69
2022/08/06 06:28:59;;;;;;;1.42;1.10;;;;;;;;;;5146782;27;20191;-68
2022/08/06 06:31:28;;;;;;;3.17;1.30;;;;;;;;;;5145077;27;20201;-68
2022/08/06 06:34:01;;;;;;;2.05;1.40;;;;;;;;;;5145090;27;20198;-68
2022/08/06 06:36:30;;;;;;;1.17;1.13;;;;;;;;;;5144611;27;20198;-68
2022/08/06 06:39:00;;;;;;;1.45;1.23;;;;;;;;;;5144808;27;20264;-69
2022/08/06 06:41:29;;;;;;;3.00;1.35;;;;;;;;;;5144912;27;20194;-68
2022/08/06 06:44:00;;;;;;;1.13;1.10;;;;;;;;;;5145015;27;20554;-68
2022/08/06 06:46:31;;;;;;;1.65;1.10;;;;;;;;;;5144651;27;20229;-68
2022/08/06 06:49:01;;;;;;;1.92;1.08;;;;;;;;;;5144668;27;20190;-68
2022/08/06 06:51:32;;;;;;;4.47;0.90;;;;;;;;;;5144856;27;20243;-68
2022/08/06 06:53:58;;;;;;;2.95;1.30;;;;;;;;;;5144700;27;20206;-68
2022/08/06 06:56:27;;;;;;;3.63;1.45;;;;;;;;;;5144348;27;20194;-68
2022/08/06 06:58:57;;;;;;;3.33;1.60;;;;;;;;;;5144451;27;20210;-68
2022/08/06 07:01:24;;;;;;;1.23;1.15;;;;;;;;;;5144442;27;20194;-68
2022/08/06 07:03:51;;;;;;;3.00;1.10;;;;;;;;;;5144492;27;20202;-68
2022/08/06 07:06:18;;;;;;;3.53;1.38;;;;;;;;;;5144088;27;20448;-68
2022/08/06 07:08:46;;;;;;;3.80;1.40;;;;;;;;;;5144567;27;20235;-68
2022/08/06 07:11:15;;;;;;;1.13;1.13;;;;;;;;;;5144093;27;20202;-68
2022/08/06 07:13:43;;;;;;;1.45;1.33;;;;;;;;;;5143958;27;20195;-68
2022/08/06 07:16:12;;;;;;;1.63;1.38;;;;;;;;;;5143768;27;20198;-68
2022/08/06 07:18:38;;;;;;;1.40;1.30;;;;;;;;;;5144180;27;20251;-68
2022/08/06 07:21:05;;;;;;;4.50;1.40;;;;;;;;;;5144064;27;20445;-68
2022/08/06 07:23:31;;;;;;;3.50;1.13;;;;;;;;;;5144108;27;20247;-68
2022/08/06 07:25:59;;;;;;;1.33;1.10;;;;;;;;;;5143857;27;20247;-68
2022/08/06 07:28:26;;;;;;;1.20;1.10;;;;;;;;;;5143892;27;20212;-68
2022/08/06 07:30:54;;;;;;;2.20;1.42;;;;;;;;;;5143740;27;20239;-68
2022/08/06 07:33:20;;;;;;;2.20;1.00;;;;;;;;;;5143903;27;20202;-68
2022/08/06 07:35:47;;;;;;;2.85;2.28;;;;;;;;;;5144076;27;20194;-68
2022/08/06 07:38:15;;;;;;;2.67;1.48;;;;;;;;;;5143733;27;20247;-68
2022/08/06 07:40:44;;;;;;;1.17;1.17;;;;;;;;;;5143771;27;20431;-68
2022/08/06 07:43:13;;;;;;;2.30;1.95;;;;;;;;;;5143536;27;20197;-68
2022/08/06 07:45:40;;;;;;;5.07;1.60;;;;;;;;;;5143900;27;20198;-68
2022/08/06 07:48:07;;;;;;;3.60;1.75;;;;;;;;;;5143634;27;20198;-68
2022/08/06 07:50:34;;;;;;;2.20;1.10;;;;;;;;;;5143864;27;20198;-68
2022/08/06 07:53:00;;;;;;;3.15;1.48;;;;;;;;;;5143500;27;20236;-68
2022/08/06 07:55:27;;;;;;;1.42;1.20;;;;;;;;;;5143592;27;20524;-68
2022/08/06 07:57:54;;;;;;;1.25;1.13;;;;;;;;;;5143170;27;20198;-68
2022/08/06 08:00:22;;;;;;;3.20;1.20;;;;;;;;;;5143489;27;20264;-68
2022/08/06 08:08:13;;;;;;;2.20;1.60;;;;;;;;;;5142592;27;20248;-68
2022/08/06 08:10:40;;;;;;;3.10;1.65;;;;;;;;;;5143095;28;20207;-68
2022/08/06 08:13:06;;;;;;;2.38;1.88;;;;;;;;;;5142766;27;20194;-68
2022/08/06 08:15:34;;;;;;;2.05;1.35;;;;;;;;;;5142970;27;20194;-68
2022/08/06 08:18:00;;;;;;;1.40;1.25;;;;;;;;;;5142565;28;20235;-68
2022/08/06 08:20:27;;;;;;;2.90;1.65;;;;;;;;;;5142725;28;20345;-68
2022/08/06 08:22:53;;;;;;;5.55;2.95;;;;;;;;;;5142763;28;20480;-68
2022/08/06 08:25:20;;;;;;;2.05;1.30;;;;;;;;;;5142912;27;20266;-68
2022/08/06 08:27:46;;;;;;;2.17;2.08;;;;;;;;;;5142654;28;20518;-68
2022/08/06 08:30:12;;;;;;;1.20;1.10;;;;;;;;;;5142670;28;20506;-68
2022/08/06 08:32:40;;;;;;;4.53;1.52;;;;;;;;;;5142691;28;20198;-68
2022/08/06 08:35:07;;;;;;;3.30;1.52;;;;;;;;;;5142989;28;20521;-68
2022/08/06 08:37:33;;;;;;;2.00;1.55;;;;;;;;;;5142131;27;20194;-68
2022/08/06 08:40:00;;;;;;;1.50;1.35;;;;;;;;;;5142683;28;20270;-68
2022/08/06 08:42:29;;;;;;;2.15;1.35;;;;;;;;;;5142805;28;20194;-68
2022/08/06 08:44:55;;;;;;;6.55;1.40;;;;;;;;;;5142600;28;20220;-68
2022/08/06 08:47:22;;;;;;;3.17;1.40;;;;;;;;;;5142305;28;20263;-68
2022/08/06 08:49:53;;;;;;;3.67;1.10;;;;;;;;;;5142415;28;20190;-68
2022/08/06 08:52:21;;;;;;;2.17;1.42;;;;;;;;;;5142973;28;20532;-68
2022/08/06 08:54:49;;;;;;;5.55;1.80;;;;;;;;;;5142964;28;20498;-68
2022/08/06 08:57:16;;;;;;;2.17;1.30;;;;;;;;;;5142831;28;20205;-68
2022/08/06 08:59:42;;;;;;;3.55;1.42;;;;;;;;;;5142965;27;20525;-68
2022/08/06 09:02:10;;;;;;;1.25;1.15;;;;;;;;;;5142784;28;20238;-68
2022/08/06 09:04:37;;;;;;;2.05;1.20;;;;;;;;;;5142669;28;20194;-68
2022/08/06 09:07:04;;;;;;;3.70;1.13;;;;;;;;;;5142748;28;20483;-68
2022/08/06 09:09:31;;;;;;;1.73;1.10;;;;;;;;;;5142961;28;20413;-68
2022/08/06 09:11:58;;;;;;;2.90;1.00;;;;;;;;;;5142856;28;20501;-69
2022/08/06 09:14:24;;;;;;;1.65;1.20;;;;;;;;;;5142608;28;20193;-68
2022/08/06 09:16:50;;;;;;;3.90;1.05;;;;;;;;;;5142948;27;20193;-68
2022/08/06 09:19:17;;;;;;;3.92;1.08;;;;;;;;;;5146818;27;20259;-69
2022/08/06 09:21:43;;;;;;;1.60;1.10;;;;;;;;;;5146484;27;20370;-69
2022/08/06 09:24:11;;;;;;;2.13;1.15;;;;;;;;;;5146599;27;20198;-68
2022/08/06 09:26:39;;;;;;;1.10;0.95;;;;;;;;;;5146204;27;20200;-68
2022/08/06 09:29:15;;;;;;;1.58;1.08;;;;;;;;;;5146385;27;20190;-68
2022/08/06 09:31:41;;;;;;;2.72;1.25;;;;;;;;;;5146291;27;20212;-68
2022/08/06 09:34:07;;;;;;;1.92;1.27;;;;;;;;;;5146021;27;20190;-68
2022/08/06 09:36:41;;;;;;;3.15;0.90;;;;;;;;;;5145987;27;20255;-69
2022/08/06 09:39:07;;;;;;;1.77;1.08;;;;;;;;;;5145989;27;20251;-68
2022/08/06 09:41:35;;;;;;;1.27;0.95;;;;;;;;;;5146097;27;20194;-68
2022/08/06 09:44:11;;;;;;;4.53;1.02;;;;;;;;;;5146038;27;20201;-68
2022/08/06 09:46:39;;;;;;;3.13;0.90;;;;;;;;;;5145947;27;20197;-68
2022/08/06 09:49:05;;;;;;;1.20;1.10;;;;;;;;;;5146159;27;20194;-68
2022/08/06 09:51:34;;;;;;;2.25;1.20;;;;;;;;;;5145897;27;20193;-68
2022/08/06 09:54:01;;;;;;;1.20;1.10;;;;;;;;;;5145752;27;20201;-68
2022/08/06 09:56:28;;;;;;;1.42;1.33;;;;;;;;;;5145471;27;20194;-68
2022/08/06 09:58:59;;;;;;;1.58;1.10;;;;;;;;;;5145673;27;20409;-68
2022/08/06 10:01:25;;;;;;;0.93;0.93;;;;;;;;;;5145919;27;20194;-68
2022/08/06 10:03:52;;;;;;;1.10;0.90;;;;;;;;;;5145838;27;20427;-69
2022/08/06 10:06:20;;;;;;;3.92;1.20;;;;;;;;;;5145290;27;20266;-68
2022/08/06 10:08:47;;;;;;;1.88;1.15;;;;;;;;;;5145481;27;20198;-69
2022/08/06 10:11:13;;;;;;;1.90;1.00;;;;;;;;;;5145409;27;20265;-68
2022/08/06 10:13:40;;;;;;;4.57;1.00;;;;;;;;;;5145648;27;20197;-69
2022/08/06 10:16:17;;;;;;;3.20;1.08;;;;;;;;;;5145408;27;20209;-69
2022/08/06 10:18:44;;;;;;;3.15;0.90;;;;;;;;;;5145404;27;20194;-69
2022/08/06 10:21:11;;;;;;;2.28;1.00;;;;;;;;;;5145265;27;20366;-69
2022/08/06 10:23:38;;;;;;;3.53;1.05;;;;;;;;;;5145144;27;20231;-69
2022/08/06 10:26:05;;;;;;;1.35;1.00;;;;;;;;;;5145347;27;20907;-69
2022/08/06 10:28:33;;;;;;;1.15;1.00;;;;;;;;;;5145317;27;20389;-69
2022/08/06 10:30:59;;;;;;;2.17;0.90;;;;;;;;;;5145808;27;20190;-69
2022/08/06 10:33:29;;;;;;;0.98;0.93;;;;;;;;;;5145331;27;20201;-69
2022/08/06 10:36:04;;;;;;;3.22;1.27;;;;;;;;;;5145190;27;20231;-69
2022/08/06 10:38:34;;;;;;;2.72;1.23;;;;;;;;;;5145226;27;20193;-69
2022/08/06 10:41:00;;;;;;;1.20;1.10;;;;;;;;;;5145104;27;20258;-68
2022/08/06 10:43:27;;;;;;;1.35;1.17;;;;;;;;;;5145203;27;20202;-69
2022/08/06 10:45:53;;;;;;;1.17;0.90;;;;;;;;;;5144947;27;20194;-69
2022/08/06 10:48:20;;;;;;;1.42;1.10;;;;;;;;;;5144527;27;20463;-69
2022/08/06 10:50:48;;;;;;;1.00;1.00;;;;;;;;;;5144607;27;20273;-69
2022/08/06 10:53:16;;;;;;;1.20;1.10;;;;;;;;;;5144664;27;20444;-69
2022/08/06 10:55:42;;;;;;;2.67;0.85;;;;;;;;;;5144589;27;20208;-69
2022/08/06 10:58:09;;;;;;;1.60;0.98;;;;;;;;;;5144440;27;20239;-69
2022/08/06 11:00:35;;;;;;;1.73;0.95;;;;;;;;;;5144847;27;20224;-69
2022/08/06 11:03:07;;;;;;;2.10;1.05;;;;;;;;;;5144785;27;20261;-69
2022/08/06 11:05:36;;;;;;;3.20;1.02;;;;;;;;;;5144369;27;20267;-69
2022/08/06 11:08:11;;;;;;;1.52;0.90;;;;;;;;;;5144370;27;20551;-69
2022/08/06 11:10:47;;;;;;;5.93;1.13;;;;;;;;;;5145054;27;20178;-69
2022/08/06 11:13:17;;;;;;;1.80;0.95;;;;;;;;;;5144400;27;20201;-69
2022/08/06 11:15:44;;;;;;;2.20;0.95;;;;;;;;;;5144203;27;20247;-69
2022/08/06 11:18:11;;;;;;;2.15;1.17;;;;;;;;;;5143955;27;20414;-69
2022/08/06 11:20:41;;;;;;;1.83;0.98;;;;;;;;;;5144231;27;20213;-69
2022/08/06 11:23:22;;;;;;;3.35;1.50;;;;;;;;;;5144496;27;20200;-69
2022/08/06 11:25:51;;;;;;;1.20;1.20;;;;;;;;;;5141151;27;20239;-69
2022/08/06 11:28:18;;;;;;;2.25;0.85;;;;;;;;;;5143651;27;20208;-69
2022/08/06 11:30:46;;;;;;;1.25;1.08;;;;;;;;;;5144151;27;20493;-69
2022/08/06 11:33:13;;;;;;;2.95;0.90;;;;;;;;;;5144051;27;20264;-69
2022/08/06 11:35:41;;;;;;;2.60;0.95;;;;;;;;;;5143922;27;20247;-69
2022/08/06 11:38:08;;;;;;;0.90;0.90;;;;;;;;;;5143770;27;20205;-69
2022/08/06 11:40:53;;;;;;;3.70;0.88;;;;;;;;;;5142978;27;20205;-69
2022/08/06 11:43:34;;;;;;;4.30;1.20;;;;;;;;;;5144136;27;20508;-69
2022/08/06 11:46:21;;;;;;;0.88;0.88;;;;;;;;;;5143348;27;20198;-69
2022/08/06 11:49:03;;;;;;;2.65;0.88;;;;;;;;;;5143753;27;20193;-69
2022/08/06 11:51:38;;;;;;;3.80;0.88;;;;;;;;;;5130907;27;20517;-69
2022/08/06 11:54:11;;;;;;;3.13;1.05;;;;;;;;;;5143745;27;20509;-69
2022/08/06 11:57:08;;;;;;;2.20;1.10;;;;;;;;;;5143393;27;20197;-69
2022/08/06 11:59:35;;;;;;;3.22;1.10;;;;;;;;;;5143195;27;20217;-69
2022/08/06 12:02:04;;;;;;;3.13;0.95;;;;;;;;;;5143480;27;20198;-69
2022/08/06 12:04:40;;;;;;;2.30;0.93;;;;;;;;;;5143173;27;20208;-69
2022/08/06 12:07:21;;;;;;;0.85;0.85;;;;;;;;;;5143384;28;20193;-69
2022/08/06 12:09:48;;;;;;;1.73;1.27;;;;;;;;;;5143472;27;20549;-69
2022/08/06 12:12:36;;;;;;;2.70;0.98;;;;;;;;;;5143347;27;20194;-69
2022/08/06 12:15:04;;;;;;;2.92;0.95;;;;;;;;;;5143691;28;20194;-69
2022/08/06 12:17:32;;;;;;;1.48;0.90;;;;;;;;;;5143078;28;20239;-69
2022/08/06 12:20:00;;;;;;;1.88;1.10;;;;;;;;;;5143375;28;20247;-69
2022/08/06 12:22:27;;;;;;;2.22;0.77;;;;;;;;;;5143253;28;20265;-69
2022/08/06 12:24:54;;;;;;;1.65;1.23;;;;;;;;;;5143487;27;20186;-69
2022/08/06 12:27:21;;;;;;;2.45;0.82;;;;;;;;;;5143104;28;20202;-69
2022/08/06 12:29:48;;;;;;;2.22;1.02;;;;;;;;;;5143324;27;20223;-69
2022/08/06 12:32:21;;;;;;;2.47;1.08;;;;;;;;;;5143658;28;20198;-69
2022/08/06 12:34:49;;;;;;;1.50;1.10;;;;;;;;;;5143193;27;20194;-69
2022/08/06 12:37:15;;;;;;;1.95;1.00;;;;;;;;;;5143247;28;20194;-69
2022/08/06 12:42:26;;;;;;;2.67;0.80;;;;;;;;;;5143348;27;20192;-69
2022/08/06 12:44:53;;;;;;;3.15;1.00;;;;;;;;;;5143414;28;20269;-69
2022/08/06 12:47:19;;;;;;;1.02;0.70;;;;;;;;;;5142835;28;20194;-69
2022/08/06 12:49:46;;;;;;;1.73;0.80;;;;;;;;;;5143123;28;20205;-69
2022/08/06 12:52:16;;;;;;;1.02;0.80;;;;;;;;;;5145984;27;20238;-69
2022/08/06 12:54:42;;;;;;;1.00;1.00;;;;;;;;;;5146845;27;20247;-69
2022/08/06 12:57:09;;;;;;;1.33;1.00;;;;;;;;;;5146941;27;20194;-69
2022/08/06 12:59:35;;;;;;;2.10;1.10;;;;;;;;;;5146955;27;20193;-69
2022/08/06 13:02:02;;;;;;;1.80;1.00;;;;;;;;;;5146995;27;20239;-69
2022/08/06 13:04:29;;;;;;;1.27;1.17;;;;;;;;;;5147062;27;20239;-69
2022/08/06 13:06:55;;;;;;;2.65;0.85;;;;;;;;;;5146978;27;20231;-69
2022/08/06 13:09:29;;;;;;;1.83;0.82;;;;;;;;;;5146838;27;20198;-69
2022/08/06 13:11:56;;;;;;;1.83;0.90;;;;;;;;;;5146743;27;20194;-69
2022/08/06 13:14:22;;;;;;;1.02;1.02;;;;;;;;;;5146635;27;20417;-69
2022/08/06 13:16:49;;;;;;;2.00;0.90;;;;;;;;;;5146251;27;20536;-69
2022/08/06 13:19:17;;;;;;;1.45;0.85;;;;;;;;;;5146775;27;20239;-69
2022/08/06 13:21:44;;;;;;;0.80;0.80;;;;;;;;;;5146571;27;20228;-69
2022/08/06 13:24:11;;;;;;;1.70;1.30;;;;;;;;;;5146379;27;20205;-69
2022/08/06 13:26:52;;;;;;;4.65;1.08;;;;;;;;;;5146214;27;20202;-69
2022/08/06 13:29:19;;;;;;;4.13;1.10;;;;;;;;;;5146543;27;20202;-69
2022/08/06 13:31:46;;;;;;;1.10;1.00;;;;;;;;;;5146521;27;20197;-69
2022/08/06 13:34:15;;;;;;;1.23;1.20;;;;;;;;;;5146382;27;20198;-69
2022/08/06 13:36:42;;;;;;;1.13;1.02;;;;;;;;;;5146005;27;20193;-69
2022/08/06 13:39:17;;;;;;;1.85;1.23;;;;;;;;;;5146160;27;20419;-69
2022/08/06 13:41:44;;;;;;;0.85;0.75;;;;;;;;;;5146579;27;20217;-69
2022/08/06 13:44:25;;;;;;;1.95;0.82;;;;;;;;;;5146212;27;20493;-69
2022/08/06 13:46:52;;;;;;;3.13;1.30;;;;;;;;;;5145831;27;20193;-69
2022/08/06 13:49:19;;;;;;;1.05;0.65;;;;;;;;;;5145986;27;20194;-69
2022/08/06 13:51:45;;;;;;;1.90;1.70;;;;;;;;;;5145872;27;20205;-69
2022/08/06 13:54:11;;;;;;;2.25;1.50;;;;;;;;;;5145603;27;20202;-69
2022/08/06 13:56:37;;;;;;;1.40;1.20;;;;;;;;;;5145821;27;20202;-69
2022/08/06 13:59:04;;;;;;;1.30;1.17;;;;;;;;;;5145725;27;20194;-69
2022/08/06 14:01:30;;;;;;;2.17;1.20;;;;;;;;;;5145474;27;20266;-69
2022/08/06 14:03:58;;;;;;;1.17;0.98;;;;;;;;;;5145027;27;20394;-69
2022/08/06 14:06:24;;;;;;;2.70;1.00;;;;;;;;;;5145401;27;20236;-69
2022/08/06 14:08:51;;;;;;;1.13;1.10;;;;;;;;;;5145583;27;20424;-69
2022/08/06 14:11:17;;;;;;;1.58;1.20;;;;;;;;;;5145807;27;20194;-69
2022/08/06 14:13:43;;;;;;;1.20;1.10;;;;;;;;;;5145496;27;20280;-69
2022/08/06 14:16:09;;;;;;;1.98;1.05;;;;;;;;;;5145367;27;20379;-69
2022/08/06 14:18:36;;;;;;;2.38;1.58;;;;;;;;;;5145768;27;20193;-69
2022/08/06 14:21:03;;;;;;;3.50;1.13;;;;;;;;;;5145288;27;20213;-69
2022/08/06 14:23:29;;;;;;;1.92;1.00;;;;;;;;;;5145168;27;20519;-69
2022/08/06 14:25:56;;;;;;;0.93;0.90;;;;;;;;;;5145543;27;20397;-69
2022/08/06 14:28:22;;;;;;;2.17;0.75;;;;;;;;;;5145339;27;20247;-69
2022/08/06 14:30:48;;;;;;;0.90;0.90;;;;;;;;;;5145373;27;20420;-69
2022/08/06 14:33:14;;;;;;;1.17;0.80;;;;;;;;;;5145239;27;20251;-69
2022/08/06 14:35:41;;;;;;;0.98;0.80;;;;;;;;;;5145065;27;20271;-69
2022/08/06 14:38:10;;;;;;;1.33;0.80;;;;;;;;;;5145163;27;20208;-69
2022/08/06 14:46:04;;;;;;;9.60;2.00;;;;;;;;;;5144710;27;20227;-69
2022/08/06 14:48:31;;;;;;;2.05;1.63;;;;;;;;;;5144551;27;20197;-69
2022/08/06 14:50:57;;;;;;;2.05;0.90;;;;;;;;;;5144981;27;20388;-69
2022/08/06 14:53:25;;;;;;;1.42;1.08;;;;;;;;;;5144820;27;20273;-69
2022/08/06 14:55:51;;;;;;;1.10;1.00;;;;;;;;;;5144741;27;20533;-69
2022/08/06 14:58:17;;;;;;;1.33;0.93;;;;;;;;;;5144483;27;20388;-69
2022/08/06 15:00:47;;;;;;;0.80;0.80;;;;;;;;;;5144304;27;20598;-69
2022/08/06 15:03:13;;;;;;;0.95;0.85;;;;;;;;;;5144393;27;20194;-69